createdAt,value
2018-11-25T00:00:33.238Z,3.90
2018-11-25T00:05:37.736Z,3.80
2018-11-25T00:10:59.984Z,3.70
2018-11-25T00:16:05.562Z,3.70
2018-11-25T00:21:12.760Z,3.70
2018-11-25T00:26:17.190Z,3.60
2018-11-25T00:31:21.629Z,3.60
2018-11-25T00:36:26.039Z,3.70
2018-11-25T00:41:30.504Z,3.60
2018-11-25T00:46:34.962Z,3.30
2018-11-25T00:51:39.418Z,3.20
2018-11-25T00:56:43.849Z,3.10
2018-11-25T01:01:48.290Z,3.00
2018-11-25T01:06:52.849Z,2.90
2018-11-25T01:11:57.289Z,2.90
2018-11-25T01:17:01.710Z,3.00
2018-11-25T01:22:06.116Z,3.00
2018-11-25T01:27:10.606Z,3.10
2018-11-25T01:32:15.084Z,3.10
2018-11-25T01:37:19.542Z,3.10
2018-11-25T01:42:24.029Z,3.00
2018-11-25T01:47:28.511Z,2.90
2018-11-25T01:52:33.002Z,3.00
2018-11-25T01:57:37.433Z,2.90
2018-11-25T02:02:41.881Z,2.90
2018-11-25T02:07:46.332Z,2.80
2018-11-25T02:12:50.799Z,2.70
2018-11-25T02:17:55.226Z,2.50
2018-11-25T02:22:59.662Z,2.50
2018-11-25T02:28:04.121Z,2.40
2018-11-25T02:33:08.597Z,2.30
2018-11-25T02:38:13.073Z,2.20
2018-11-25T02:43:17.522Z,2.30
2018-11-25T02:48:22.014Z,2.30
2018-11-25T02:53:26.425Z,2.30
2018-11-25T02:58:30.900Z,2.40
2018-11-25T03:03:35.485Z,2.40
2018-11-25T03:08:39.935Z,2.50
2018-11-25T03:13:44.386Z,2.40
2018-11-25T03:18:48.815Z,2.40
2018-11-25T03:23:53.242Z,2.50
2018-11-25T03:28:57.690Z,2.50
2018-11-25T03:34:02.182Z,2.40
2018-11-25T03:39:08.045Z,2.20
2018-11-25T03:44:12.509Z,2.40
2018-11-25T03:49:17.004Z,2.50
2018-11-25T03:54:21.447Z,2.50
2018-11-25T03:59:25.899Z,2.50
2018-11-25T04:04:30.352Z,2.60
2018-11-25T04:09:34.814Z,2.60
2018-11-25T04:14:39.291Z,2.60
2018-11-25T04:19:43.760Z,2.50
2018-11-25T04:24:48.224Z,2.70
2018-11-25T04:29:52.685Z,2.60
2018-11-25T04:34:57.131Z,2.80
2018-11-25T04:40:01.582Z,2.90
2018-11-25T04:45:13.002Z,2.80
2018-11-25T04:50:19.338Z,2.90
2018-11-25T05:06:37.034Z,2.80
2018-11-25T05:11:41.503Z,2.90
2018-11-25T05:16:45.985Z,3.10
2018-11-25T05:21:50.438Z,3.10
2018-11-25T05:26:54.902Z,3.30
2018-11-25T05:31:59.388Z,3.20
2018-11-25T05:37:03.817Z,3.40
2018-11-25T05:42:08.271Z,3.30
2018-11-25T05:47:12.732Z,3.60
2018-11-25T05:52:17.189Z,3.70
2018-11-25T05:57:39.660Z,3.70
2018-11-25T06:02:44.141Z,3.60
2018-11-25T06:07:48.596Z,3.60
2018-11-25T06:12:53.821Z,3.60
2018-11-25T06:17:58.305Z,3.60
2018-11-25T06:23:02.842Z,3.60
2018-11-25T06:28:07.327Z,3.70
2018-11-25T06:33:11.780Z,3.90
2018-11-25T06:38:16.384Z,4.00
2018-11-25T06:43:35.162Z,4.00
2018-11-25T06:48:39.623Z,4.00
2018-11-25T06:53:44.042Z,3.90
2018-11-25T06:58:48.482Z,3.90
2018-11-25T07:03:53.008Z,3.80
2018-11-25T07:08:57.480Z,4.00
2018-11-25T07:14:01.972Z,4.20
2018-11-25T07:19:19.498Z,4.00
2018-11-25T07:24:25.728Z,4.20
2018-11-25T07:29:30.650Z,4.20
2018-11-25T07:34:43.150Z,4.20
2018-11-25T07:39:47.656Z,4.40
2018-11-25T07:44:52.163Z,4.50
2018-11-25T07:50:08.633Z,4.50
2018-11-25T07:55:17.979Z,4.50
2018-11-25T08:00:26.643Z,4.80
2018-11-25T08:05:31.161Z,5.20
2018-11-25T08:10:35.688Z,5.20
2018-11-25T08:16:05.155Z,5.40
2018-11-25T08:21:10.081Z,5.30
2018-11-25T08:26:17.136Z,5.40
2018-11-25T08:31:22.423Z,5.80
2018-11-25T08:42:06.445Z,6.50
2018-11-25T08:47:11.156Z,6.70
2018-11-25T08:52:15.818Z,6.90
2018-11-25T08:57:20.617Z,7.20
2018-11-25T09:02:25.132Z,7.50
2018-11-25T09:07:29.620Z,7.50
2018-11-25T09:12:34.358Z,7.70
2018-11-25T09:17:38.997Z,7.70
2018-11-25T09:22:43.549Z,7.80
2018-11-25T09:27:48.121Z,8.20
2018-11-25T09:32:52.627Z,8.40
2018-11-25T09:37:57.156Z,8.40
2018-11-25T09:43:03.007Z,8.40
2018-11-25T09:48:17.648Z,7.80
2018-11-25T09:59:29.674Z,8.40
2018-11-25T10:04:43.694Z,8.30
2018-11-25T10:09:49.164Z,8.10
2018-11-25T10:15:05.234Z,8.00
2018-11-25T10:25:52.750Z,8.10
2018-11-25T10:31:17.048Z,8.30
2018-11-25T10:36:32.390Z,8.30
2018-11-25T10:41:38.518Z,8.50
2018-11-25T10:57:53.626Z,8.90
2018-11-25T11:03:03.453Z,8.70
2018-11-25T11:08:08.750Z,8.70
2018-11-25T11:13:13.293Z,8.90
2018-11-25T11:18:36.947Z,9.10
2018-11-25T11:23:43.429Z,9.30
2018-11-25T11:28:49.329Z,9.60
2018-11-25T11:34:04.239Z,10.10
2018-11-25T11:39:10.543Z,10.90
2018-11-25T11:44:15.853Z,10.70
2018-11-25T11:49:22.477Z,10.70
2018-11-25T11:54:29.353Z,10.30
2018-11-25T11:59:36.039Z,9.80
2018-11-25T12:04:51.436Z,9.70
2018-11-25T12:10:00.363Z,9.40
2018-11-25T12:15:05.936Z,9.70
2018-11-25T12:20:11.740Z,10.10
2018-11-25T12:25:18.031Z,10.40
2018-11-25T12:30:23.754Z,10.50
2018-11-25T12:35:29.050Z,10.90
2018-11-25T12:40:34.452Z,10.80
2018-11-25T12:45:39.746Z,10.60
2018-11-25T12:50:44.606Z,10.70
2018-11-25T12:55:59.145Z,10.60
2018-11-25T13:01:24.383Z,10.30
2018-11-25T13:06:46.144Z,9.60
2018-11-25T13:11:52.453Z,9.30
2018-11-25T13:16:55.889Z,8.90
2018-11-25T13:22:00.523Z,8.70
2018-11-25T13:27:05.073Z,8.40
2018-11-25T13:32:11.233Z,8.20
2018-11-25T13:37:15.986Z,7.80
2018-11-25T13:42:23.387Z,7.90
2018-11-25T13:47:30.807Z,7.60
2018-11-25T13:52:37.006Z,7.40
2018-11-25T13:57:41.529Z,7.30
2018-11-25T14:02:46.258Z,7.40
2018-11-25T14:07:50.914Z,7.40
2018-11-25T14:12:55.365Z,7.20
2018-11-25T14:17:59.821Z,7.10
2018-11-25T14:23:04.306Z,7.20
2018-11-25T14:28:11.103Z,7.20
2018-11-25T14:33:15.543Z,7.30
2018-11-25T14:38:20.031Z,7.30
2018-11-25T14:43:24.518Z,7.30
2018-11-25T14:48:29.149Z,7.20
2018-11-25T14:53:33.604Z,7.00
2018-11-25T14:58:38.436Z,6.90
2018-11-25T15:03:42.982Z,6.80
2018-11-25T15:08:47.755Z,6.70
2018-11-25T15:13:52.394Z,6.60
2018-11-25T15:18:57.057Z,6.40
2018-11-25T15:24:01.603Z,6.30
2018-11-25T15:29:06.238Z,6.10
2018-11-25T15:34:10.810Z,6.00
2018-11-25T15:39:15.389Z,5.80
2018-11-25T15:44:19.886Z,5.70
2018-11-25T15:49:24.375Z,5.30
2018-11-25T15:54:28.948Z,5.30
2018-11-25T15:59:33.489Z,5.10
2018-11-25T16:04:42.939Z,4.80
2018-11-25T16:09:55.540Z,4.90
2018-11-25T16:15:00.264Z,4.80
2018-11-25T16:20:05.853Z,4.60
2018-11-25T16:25:21.950Z,4.60
2018-11-25T16:30:26.490Z,4.50
2018-11-25T16:35:31.068Z,4.50
2018-11-25T16:40:35.565Z,4.40
2018-11-25T16:45:49.816Z,4.40
2018-11-25T16:50:54.289Z,4.60
2018-11-25T16:55:58.775Z,4.70
2018-11-25T17:01:09.784Z,4.60
2018-11-25T17:06:08.565Z,4.50
2018-11-25T17:11:14.366Z,4.30
2018-11-25T17:16:19.226Z,4.10
2018-11-25T17:21:36.135Z,3.70
2018-11-25T17:26:40.599Z,3.40
2018-11-25T17:31:45.138Z,3.40
2018-11-25T17:36:54.094Z,3.30
2018-11-25T17:41:58.626Z,3.00
2018-11-25T17:47:03.119Z,3.10
2018-11-25T17:52:07.617Z,3.20
2018-11-25T17:57:12.148Z,2.90
2018-11-25T18:02:16.699Z,2.70
2018-11-25T18:07:21.200Z,2.50
2018-11-25T18:12:26.746Z,2.50
2018-11-25T18:17:31.308Z,2.40
2018-11-25T18:22:36.272Z,2.30
2018-11-25T18:27:40.749Z,2.10
2018-11-25T18:32:45.792Z,2.30
2018-11-25T18:37:50.373Z,2.20
2018-11-25T18:42:54.865Z,2.30
2018-11-25T18:47:59.428Z,2.50
2018-11-25T18:53:03.902Z,2.40
2018-11-25T18:58:08.435Z,2.40
2018-11-25T19:03:12.972Z,2.40
2018-11-25T19:08:17.526Z,2.50
2018-11-25T19:13:22.034Z,2.60
2018-11-25T19:18:26.675Z,2.70
2018-11-25T19:23:31.609Z,2.90
2018-11-25T19:28:38.576Z,2.70
2018-11-25T19:33:46.234Z,3.00
2018-11-25T19:38:51.421Z,3.00
2018-11-25T19:43:56.307Z,2.60
2018-11-25T19:49:01.209Z,2.50
2018-11-25T19:54:06.302Z,2.50
2018-11-25T19:59:11.174Z,2.70
2018-11-25T20:04:15.773Z,2.70
2018-11-25T20:09:20.328Z,2.70
2018-11-25T20:14:25.239Z,2.80
2018-11-25T20:19:32.873Z,3.10
2018-11-25T20:24:37.418Z,3.20
2018-11-25T20:29:41.982Z,3.30
2018-11-25T20:34:46.553Z,3.30
2018-11-25T20:39:51.164Z,3.40
2018-11-25T20:49:23.901Z,3.30
2018-11-25T20:54:28.729Z,3.60
2018-11-25T20:59:36.062Z,3.60
2018-11-25T21:04:40.686Z,3.20
2018-11-25T21:09:46.513Z,3.10
2018-11-25T21:14:51.118Z,3.20
2018-11-25T21:19:56.020Z,3.10
2018-11-25T21:25:00.658Z,3.00
2018-11-25T21:30:08.739Z,3.30
2018-11-25T21:35:13.763Z,3.20
2018-11-25T21:40:20.030Z,3.50
2018-11-25T21:45:24.601Z,3.50
2018-11-25T21:50:29.642Z,3.60
2018-11-25T21:55:34.149Z,3.80
2018-11-25T22:00:38.691Z,3.70
2018-11-25T22:05:43.290Z,3.90
2018-11-25T22:10:47.864Z,3.90
2018-11-25T22:15:52.420Z,4.00
2018-11-25T22:20:56.958Z,4.20
2018-11-25T22:26:01.481Z,3.80
2018-11-25T22:31:07.308Z,3.90
2018-11-25T22:36:11.895Z,4.00
2018-11-25T22:41:16.475Z,4.10
2018-11-25T22:46:21.029Z,4.10
2018-11-25T22:51:25.595Z,4.20
2018-11-25T22:56:30.148Z,4.20
2018-11-25T23:01:34.685Z,4.40
2018-11-25T23:06:50.315Z,4.30
2018-11-25T23:11:54.900Z,4.20
2018-11-25T23:16:59.457Z,4.30
2018-11-25T23:22:04.132Z,4.50
2018-11-25T23:27:08.734Z,4.40
2018-11-25T23:32:13.363Z,4.30
2018-11-25T23:37:17.971Z,4.30
2018-11-25T23:42:22.575Z,4.30
2018-11-25T23:47:27.116Z,4.30
2018-11-25T23:52:31.714Z,4.30
2018-11-25T23:57:36.374Z,4.40
